1885 NOT_NAMED (1885131S13066)


IBTrACS version v04r00. Visit IBTrACS website for data access.
Please direct all questions to the IBTrACS Q and A forum

Storm track - Intensity - Wind Radii - Intensity Data - Source Data - All data

Summary Information

Storm ID 1885131S13066
Start May 11 06Z
End May 18 06Z
ATCF IDs
Track status Best track data.

Storm track plot

Map of storm track

Intensity plots

No Intensity information for this storm


Radial wind information

No radial wind information for this storm


Position and Intensity Table

BASIN ISO_TIME_________ NATURE LAT LON
degrees north degrees east
SI 1885-05-11 06:00:00 NR -13.20 66.20
SI 09:00:00 NR -13.34 66.10
SI 12:00:00 NR -13.47 66.00
SI 15:00:00 NR -13.61 65.90
SI 18:00:00 NR -13.76 65.80
SI 21:00:00 NR -13.91 65.70
SI 1885-05-12 00:00:00 NR -14.06 65.60
SI 03:00:00 NR -14.23 65.50
SI 06:00:00 NR -14.40 65.40
SI 09:00:00 NR -14.58 65.30
SI 12:00:00 NR -14.77 65.21
SI 15:00:00 NR -14.97 65.11
SI 18:00:00 NR -15.16 65.02
SI 21:00:00 NR -15.36 64.93
SI 1885-05-13 00:00:00 NR -15.55 64.85
SI 03:00:00 NR -15.73 64.77
SI 06:00:00 NR -15.90 64.70
SI 09:00:00 NR -16.05 64.63
SI 12:00:00 NR -16.19 64.57
SI 15:00:00 NR -16.31 64.51
SI 18:00:00 NR -16.44 64.45
SI 21:00:00 NR -16.56 64.41
SI 1885-05-14 00:00:00 NR -16.67 64.37
SI 03:00:00 NR -16.78 64.33
SI 06:00:00 NR -16.90 64.30
SI 09:00:00 NR -17.00 64.27
SI 12:00:00 NR -17.09 64.24
SI 15:00:00 NR -17.18 64.22
SI 18:00:00 NR -17.29 64.21
SI 21:00:00 NR -17.40 64.20
SI 1885-05-15 00:00:00 NR -17.54 64.19
SI 03:00:00 NR -17.71 64.19
SI 06:00:00 NR -17.90 64.20
SI 09:00:00 NR -18.16 64.19
SI 12:00:00 NR -18.45 64.19
SI 15:00:00 NR -18.77 64.19
SI 18:00:00 NR -19.10 64.20
SI 21:00:00 NR -19.44 64.23
SI 1885-05-16 00:00:00 NR -19.77 64.27
SI 03:00:00 NR -20.10 64.32
SI 06:00:00 NR -20.40 64.40
SI 09:00:00 NR -20.66 64.50
SI 12:00:00 NR -20.89 64.62
SI 15:00:00 NR -21.12 64.75
SI 18:00:00 NR -21.33 64.90
SI 21:00:00 NR -21.53 65.07
SI 1885-05-17 00:00:00 NR -21.73 65.24
SI 03:00:00 NR -21.92 65.42
SI 06:00:00 NR -22.10 65.60
SI 09:00:00 NR -22.28 65.78
SI 12:00:00 NR -22.46 65.97
SI 15:00:00 NR -22.64 66.16
SI 18:00:00 NR -22.81 66.34
SI 21:00:00 NR -22.98 66.53
SI 1885-05-18 00:00:00 NR -23.16 66.72
SI 03:00:00 NR -23.33 66.91
SI 06:00:00 NR -23.50 67.10

Source Information

Agency Information
USA
TOKYO
CMA
HKO
NEWDELHI
REUNION WMO-Best-Tracks.txt:Line=1427:xxxx885209
BOM
NADI
WELLINGTON
DS824
TD9636
TD9635
NEUMANN
MLC

All available IBTrACS Data

SEASON BASIN SUBBASIN ISO_TIME_________ NATURE LAT LON WMO AGENCY DIST2LAND LANDFALL IFLAG USA SSHS REUNION LAT REUNION LON REUNION TYPE REUNION TNUM STORM SPEED STORM DIR
Year degrees north degrees east km km 1 degrees north degrees east 1 kts degrees
1885 SI MM 1885-05-11 06:00:00 NR -13.20 66.20 reunion 1189 1174 _____O________ -1 -13.20 66.20 99 9.90 3 216
1885 SI MM 09:00:00 NR -13.34 66.10 1174 1151 _____P________ -1 -13.34 66.10 99 3 216
1885 SI MM 12:00:00 NR -13.47 66.00 1151 1135 _____P________ -1 -13.47 66.00 99 3 215
1885 SI MM 15:00:00 NR -13.61 65.90 1135 1120 _____P________ -1 -13.61 65.90 99 3 215
1885 SI MM 18:00:00 NR -13.76 65.80 1112 1097 _____P________ -1 -13.76 65.80 99 4 213
1885 SI MM 21:00:00 NR -13.91 65.70 1097 1074 _____P________ -1 -13.91 65.70 99 4 213
1885 SI MM 1885-05-12 00:00:00 NR -14.06 65.60 1074 1059 _____P________ -1 -14.06 65.60 99 4 211
1885 SI MM 03:00:00 NR -14.23 65.50 1059 1036 _____P________ -1 -14.23 65.50 99 4 210
1885 SI MM 06:00:00 NR -14.40 65.40 reunion 1036 1014 _____O________ -1 -14.40 65.40 99 9.90 4 208
1885 SI MM 09:00:00 NR -14.58 65.30 1014 992 _____P________ -1 -14.58 65.30 99 4 207
1885 SI MM 12:00:00 NR -14.77 65.21 992 969 _____P________ -1 -14.77 65.21 99 4 206
1885 SI MM 15:00:00 NR -14.97 65.11 969 947 _____P________ -1 -14.97 65.11 99 4 205
1885 SI MM 18:00:00 NR -15.16 65.02 947 932 _____P________ -1 -15.16 65.02 99 4 204
1885 SI MM 21:00:00 NR -15.36 64.93 926 919 _____P________ -1 -15.36 64.93 99 4 203
1885 SI MM 1885-05-13 00:00:00 NR -15.55 64.85 910 898 _____P________ -1 -15.55 64.85 99 4 203
1885 SI MM 03:00:00 NR -15.73 64.77 898 876 _____P________ -1 -15.73 64.77 99 4 202
1885 SI MM 06:00:00 NR -15.90 64.70 reunion 876 861 _____O________ -1 -15.90 64.70 99 9.90 3 204
1885 SI MM 09:00:00 NR -16.05 64.63 861 849 _____P________ -1 -16.05 64.63 99 3 204
1885 SI MM 12:00:00 NR -16.19 64.57 849 834 _____P________ -1 -16.19 64.57 99 3 203
1885 SI MM 15:00:00 NR -16.31 64.51 834 828 _____P________ -1 -16.31 64.51 99 3 202
1885 SI MM 18:00:00 NR -16.44 64.45 828 813 _____P________ -1 -16.44 64.45 99 3 202
1885 SI MM 21:00:00 NR -16.56 64.41 808 802 _____P________ -1 -16.56 64.41 99 2 201
1885 SI MM 1885-05-14 00:00:00 NR -16.67 64.37 802 787 _____P________ -1 -16.67 64.37 99 2 200
1885 SI MM 03:00:00 NR -16.78 64.33 787 782 _____P________ -1 -16.78 64.33 99 2 197
1885 SI MM 06:00:00 NR -16.90 64.30 reunion 782 777 _____O________ -1 -16.90 64.30 99 9.90 2 196
1885 SI MM 09:00:00 NR -17.00 64.27 777 762 _____P________ -1 -17.00 64.27 99 2 197
1885 SI MM 12:00:00 NR -17.09 64.24 762 757 _____P________ -1 -17.09 64.24 99 2 194
1885 SI MM 15:00:00 NR -17.18 64.22 757 752 _____P________ -1 -17.18 64.22 99 2 190
1885 SI MM 18:00:00 NR -17.29 64.21 752 747 _____P________ -1 -17.29 64.21 99 2 0
1885 SI MM 21:00:00 NR -17.40 64.20 747 742 _____P________ -1 -17.40 64.20 99 3 0
1885 SI MM 1885-05-15 00:00:00 NR -17.54 64.19 742 732 _____P________ -1 -17.54 64.19 99 3 185
1885 SI MM 03:00:00 NR -17.71 64.19 732 724 _____P________ -1 -17.71 64.19 99 4 177
1885 SI MM 06:00:00 NR -17.90 64.20 reunion 724 715 _____O________ -1 -17.90 64.20 99 9.90 5 181
1885 SI MM 09:00:00 NR -18.16 64.19 711 704 _____P________ -1 -18.16 64.19 99 6 181
1885 SI MM 12:00:00 NR -18.45 64.19 704 694 _____P________ -1 -18.45 64.19 99 6 181
1885 SI MM 15:00:00 NR -18.77 64.19 691 683 _____P________ -1 -18.77 64.19 99 7 0
1885 SI MM 18:00:00 NR -19.10 64.20 683 676 _____P________ -1 -19.10 64.20 99 7 176
1885 SI MM 21:00:00 NR -19.44 64.23 676 673 _____P________ -1 -19.44 64.23 99 7 176
1885 SI MM 1885-05-16 00:00:00 NR -19.77 64.27 681 678 _____P________ -1 -19.77 64.27 99 7 172
1885 SI MM 03:00:00 NR -20.10 64.32 678 678 _____P________ -1 -20.10 64.32 99 6 169
1885 SI MM 06:00:00 NR -20.40 64.40 reunion 688 688 _____O________ -1 -20.40 64.40 99 9.90 6 164
1885 SI MM 09:00:00 NR -20.66 64.50 699 699 _____P________ -1 -20.66 64.50 99 5 158
1885 SI MM 12:00:00 NR -20.89 64.62 710 710 _____P________ -1 -20.89 64.62 99 5 153
1885 SI MM 15:00:00 NR -21.12 64.75 733 733 _____P________ -1 -21.12 64.75 99 5 149
1885 SI MM 18:00:00 NR -21.33 64.90 746 746 _____P________ -1 -21.33 64.90 99 5 145
1885 SI MM 21:00:00 NR -21.53 65.07 769 769 _____P________ -1 -21.53 65.07 99 5 142
1885 SI MM 1885-05-17 00:00:00 NR -21.73 65.24 783 783 _____P________ -1 -21.73 65.24 99 5 140
1885 SI MM 03:00:00 NR -21.92 65.42 808 808 _____P________ -1 -21.92 65.42 99 5 138
1885 SI MM 06:00:00 NR -22.10 65.60 reunion 833 833 _____O________ -1 -22.10 65.60 99 9.90 5 137
1885 SI MM 09:00:00 NR -22.28 65.78 858 858 _____P________ -1 -22.28 65.78 99 5 136
1885 SI MM 12:00:00 NR -22.46 65.97 883 883 _____P________ -1 -22.46 65.97 99 5 136
1885 SI MM 15:00:00 NR -22.64 66.16 906 906 _____P________ -1 -22.64 66.16 99 5 136
1885 SI MM 18:00:00 NR -22.81 66.34 922 922 _____P________ -1 -22.81 66.34 99 5 135
1885 SI MM 21:00:00 NR -22.98 66.53 948 948 _____P________ -1 -22.98 66.53 99 5 135
1885 SI MM 1885-05-18 00:00:00 NR -23.16 66.72 974 974 _____P________ -1 -23.16 66.72 99 5 135
1885 SI MM 03:00:00 NR -23.33 66.91 997 997 _____P________ -1 -23.33 66.91 99 5 135
1885 SI MM 06:00:00 NR -23.50 67.10 reunion 1023 _____O________ -1 -23.50 67.10 99 9.90 5 135